Terminal Aerodrome Forecast
Issued by NWS Jackson, MS

Current Version | Previous Version | Text Only | Print | Product List | Glossary On
Versions: 1 2 3 4 5 6 7 8 9 10 11 12 13 14 15 16 17 18 19
000
FTUS44 KMEG 182039 AAB
TAFTUP
TAF AMD
KTUP 182039Z 1821/1918 23005KT P6SM SCT015
      TEMPO 1823/1903 SCT014 OVC200
     FM190300 VRB03KT P6SM OVC010
     FM190600 21003KT 6SM BR OVC007
     FM191200 21003KT 3SM -SHRA BR OVC004=

USA.gov is the U.S. government's official web portal to all federal, state and local government web resources and services.